Date,TemperatureHighF,TemperatureAvgF,TemperatureLowF,DewpointHighF,DewpointAvgF,DewpointLowF,HumidityHigh,HumidityAvg,HumidityLow,PressureMaxIn,PressureMinIn,WindSpeedMaxMPH,WindSpeedAvgMPH,GustSpeedMaxMPH,PrecipitationSumIn
2013-2-23,34,22,14,15,9,4,67,57,37,29.43,29.34,20,3,24,0.00
2013-2-24,14,10,5,4,-2,-6,64,57,42,29.57,29.31,23,5,27,0.00
2013-2-25,20,8,0,3,-6,-16,59,52,40,29.62,29.49,17,5,22,0.00
2013-2-26,11,7,1,-2,-6,-14,59,55,49,29.62,29.41,24,6,29,0.00
2013-2-27,19,4,-10,-5,-13,-30,59,45,24,29.75,29.62,20,5,27,0.00
2013-2-28,21,7,-10,3,-10,-25,65,47,24,29.80,29.74,31,8,42,0.01
2013-3-1,27,18,12,12,7,0,73,60,44,29.95,29.78,36,10,49,0.00
2013-3-2,39,25,16,17,11,4,73,55,28,29.96,29.80,23,6,36,0.00
2013-3-3,43,31,16,17,11,3,66,44,24,29.80,29.52,21,5,37,0.00
2013-3-4,36,17,-6,18,6,-19,73,61,33,29.72,29.45,31,4,40,0.02
2013-3-5,40,17,-12,10,-3,-27,65,44,20,29.97,29.71,21,4,26,0.02
2013-3-6,49,26,6,13,2,-7,63,38,20,29.89,29.76,17,4,23,0.01
2013-3-7,50,30,16,13,3,-5,46,32,20,29.83,29.76,19,5,30,0.00
2013-3-8,19,16,14,2,-1,-2,54,47,39,29.82,29.76,8,4,10,0.00
2013-3-9,27,19,9,17,10,-3,73,67,55,29.73,29.49,22,8,29,0.00
2013-3-10,22,12,5,6,-1,-6,62,55,42,29.88,29.72,27,10,40,0.01
2013-3-11,32,20,5,13,5,-8,70,52,41,29.86,29.78,27,6,34,0.00
2013-3-12,35,26,19,12,10,7,71,52,34,29.99,29.83,37,9,52,0.00
2013-3-13,40,30,22,16,10,5,55,44,27,30.10,29.97,31,8,38,0.00
2013-3-14,48,32,18,15,8,4,59,38,20,30.12,30.06,28,6,34,0.00
2013-3-15,52,35,20,15,11,7,60,40,21,30.06,29.86,23,5,40,0.00
2013-3-16,45,30,22,26,18,11,75,63,40,29.87,29.72,19,3,29,0.04
2013-3-17,37,22,13,19,9,-5,72,58,30,29.73,29.52,34,5,48,0.01
2013-3-18,18,13,11,5,0,-4,64,55,44,29.68,29.62,15,3,19,0.00
2013-3-19,32,20,3,10,-6,-15,65,34,19,29.96,29.73,27,8,39,0.01
2013-3-20,43,22,0,18,2,-18,72,44,22,29.95,29.70,28,5,34,0.01
2013-3-21,38,22,13,22,11,2,75,64,37,32.08,29.53,25,4,28,0.00
2013-3-22,36,18,-1,7,-1,-14,66,46,21,29.63,29.48,18,4,25,0.07
2013-3-23,13,8,2,3,-6,-14,65,53,33,29.69,29.48,22,5,26,0.00
2013-3-24,11,2,-8,-8,-13,-24,57,49,25,29.73,29.63,25,4,37,0.01
2013-3-25,28,4,-11,-1,-15,-26,53,41,21,29.83,29.72,17,4,21,0.00
2013-3-26,46,21,-4,17,2,-18,72,46,21,29.83,29.76,25,4,34,0.04
2013-3-27,47,28,18,19,11,4,72,51,24,29.91,29.78,24,4,32,0.05
2013-3-28,51,29,12,23,10,1,61,47,22,29.96,29.88,20,4,24,0.00
2013-3-29,47,30,16,23,15,4,77,55,26,30.00,29.94,29,4,38,0.00
2013-3-30,46,31,21,22,16,8,76,58,24,30.00,29.91,29,6,42,0.00
2013-3-31,50,28,9,15,6,-2,74,45,20,29.97,29.88,21,4,26,0.00
2013-4-1,52,33,19,24,14,4,71,47,24,29.91,29.78,17,4,23,0.00
2013-4-2,44,28,21,24,18,12,75,64,37,29.84,29.76,17,4,24,0.02
2013-4-3,36,27,16,19,14,4,72,58,40,29.98,29.83,20,4,24,0.04
2013-4-4,52,32,16,23,13,6,68,48,22,29.99,29.94,28,4,32,0.08
2013-4-5,56,36,22,29,15,9,85,47,21,29.94,29.76,21,5,29,0.00
2013-4-6,48,32,22,21,17,8,81,58,22,29.82,29.78,27,5,32,0.01
2013-4-7,47,31,21,25,16,10,71,55,30,29.80,29.68,24,4,30,0.01
2013-4-8,48,33,21,25,17,10,77,54,23,29.69,29.45,23,8,40,0.06
2013-4-9,31,21,7,21,8,-7,73,58,43,29.63,29.45,24,9,28,0.01
2013-4-10,24,12,4,5,-2,-8,59,51,40,29.70,29.62,36,8,42,0.00
2013-4-11,35,24,11,19,12,-5,75,59,42,29.73,29.60,35,12,49,0.00
2013-4-12,43,26,17,22,13,3,75,58,26,29.80,29.69,27,4,36,0.01
2013-4-13,50,33,14,24,9,-1,79,40,21,29.78,29.47,23,7,35,0.00
2013-4-14,28,21,17,21,14,10,77,74,71,29.51,29.46,26,7,36,0.00
2013-4-15,32,24,18,22,14,8,74,68,59,29.63,29.46,28,9,38,0.00
2013-4-16,44,27,15,25,15,7,74,60,43,29.63,29.53,23,12,33,0.01
2013-4-17,44,26,14,25,14,4,69,61,43,29.86,29.52,20,9,27,0.00
2013-4-18,28,9,-1,15,-5,-14,65,51,35,30.13,29.86,26,11,34,0.00
2013-4-19,33,19,1,13,3,-13,59,48,36,30.13,30.05,44,10,56,0.00
2013-4-20,41,26,19,23,14,9,75,61,34,30.11,30.00,17,4,23,0.00
2013-4-21,47,30,19,20,14,5,75,55,23,30.17,30.11,21,5,26,0.00
2013-4-22,48,32,18,25,18,7,75,57,27,30.11,30.00,15,4,22,0.08
2013-4-23,20,15,2,8,3,-10,65,59,47,30.12,29.96,22,6,30,0.00
2013-4-24,38,18,-2,11,-1,-15,62,44,22,30.23,30.08,31,4,42,0.05
2013-4-25,56,31,7,20,8,-6,63,41,20,30.21,30.09,24,4,27,0.00
2013-4-26,48,31,14,19,8,1,62,41,20,30.34,30.17,21,4,26,0.00
2013-4-27,53,33,16,22,10,0,58,41,20,30.34,30.26,29,5,33,0.00
2013-4-28,57,37,20,25,14,8,63,41,20,30.28,30.16,24,5,33,0.00
2013-4-29,59,43,26,24,16,8,69,38,20,30.19,30.00,35,7,53,0.01
2013-4-30,61,49,36,34,19,10,79,32,20,30.02,29.97,30,7,44,0.00
2013-5-1,38,25,15,30,18,9,84,75,53,30.32,30.00,19,6,28,0.07
2013-5-2,26,18,11,10,5,-1,77,59,33,30.40,30.31,23,6,28,0.00
2013-5-3,46,27,6,25,7,-4,70,47,21,30.36,30.17,17,3,21,0.00
2013-5-4,52,34,23,30,19,11,85,57,28,30.23,30.13,18,8,26,0.00
2013-5-5,53,38,24,29,22,16,78,56,26,30.23,30.16,16,7,22,0.02
2013-5-6,55,37,26,33,26,18,83,67,27,30.20,30.11,16,2,22,0.02
2013-5-7,57,38,30,32,25,15,89,64,23,30.17,30.11,17,3,26,0.13
2013-5-8,53,35,27,31,26,20,89,71,34,30.16,30.10,12,2,15,0.05
2013-5-9,31,30,30,28,27,26,89,88,86,30.15,30.14,2,0,3,0.00
2013-5-10,51,33,18,30,21,10,76,62,33,30.39,30.25,11,2,17,0.01
2013-5-11,54,40,23,32,22,10,76,52,21,30.41,30.37,24,5,34,0.00
2013-5-12,58,41,27,34,23,17,85,55,23,30.40,30.37,21,5,30,0.02
2013-5-13,70,46,30,37,27,20,78,54,16,30.43,30.36,18,4,21,0.01
2013-5-14,63,45,31,36,29,20,83,59,20,30.36,30.28,17,4,23,0.01
2013-5-15,60,43,32,39,32,28,87,70,32,30.28,30.20,18,3,24,0.07
2013-5-16,64,44,29,37,27,20,89,57,21,30.21,30.16,21,4,28,0.00
2013-5-17,67,48,31,40,23,14,75,44,15,30.20,30.14,23,5,30,0.00
2013-5-18,59,40,29,33,24,16,95,59,22,30.17,30.09,23,4,29,0.00
2013-5-19,44,33,29,29,25,17,94,75,45,30.10,30.04,25,5,33,0.01
2013-5-20,42,33,27,30,26,22,87,74,48,30.18,30.06,28,6,38,0.01
2013-5-21,52,36,27,32,23,18,81,61,32,30.17,30.13,30,5,36,0.00
2013-5-22,64,44,26,34,24,17,78,52,17,30.22,30.12,17,5,23,0.00
2013-5-23,65,48,37,34,29,17,82,53,17,30.22,30.16,26,9,31,0.00
2013-5-24,67,48,30,35,24,13,86,46,15,30.28,30.18,24,6,27,0.00
2013-5-25,68,49,29,29,21,12,69,40,13,30.27,30.22,17,5,23,0.00
2013-5-26,68,48,31,32,22,13,68,42,15,30.26,30.17,99,4,99,0.00
2013-5-27,66,46,30,28,20,8,66,39,16,30.22,30.11,17,5,21,0.00
2013-5-28,63,45,28,30,20,13,71,44,18,30.14,29.97,20,6,30,0.00
2013-5-29,51,36,29,32,25,20,84,64,33,30.00,29.92,24,5,30,0.02
2013-5-30,44,35,29,28,24,16,88,68,35,30.13,29.96,20,4,31,0.09
2013-5-31,46,37,28,28,15,6,84,45,21,30.24,30.08,35,8,53,0.05
2013-6-1,59,41,28,32,20,12,76,46,22,30.34,30.24,21,5,26,0.00
2013-6-2,70,49,27,30,21,12,74,40,13,30.33,30.20,21,4,26,0.00
2013-6-3,68,52,40,32,24,15,65,37,15,30.24,30.16,25,5,34,0.00
2013-6-4,66,49,30,39,27,16,75,47,20,30.30,30.21,28,5,34,0.00
2013-6-5,64,48,33,37,27,17,86,49,17,30.30,30.23,30,5,38,0.00
2013-6-6,66,46,28,39,26,18,79,51,17,30.34,30.27,21,4,25,0.02
2013-6-7,65,47,33,40,32,25,87,58,26,30.32,30.20,24,5,28,0.00
2013-6-8,64,51,39,34,29,21,75,48,21,30.28,30.16,30,6,35,0.00
2013-6-9,74,53,36,36,27,19,75,42,14,30.36,30.28,24,6,30,0.00
2013-6-10,79,58,37,41,28,16,75,40,12,30.35,30.29,22,4,35,0.00
2013-6-11,76,58,38,32,22,16,65,32,12,30.36,30.25,24,6,33,0.00
2013-6-12,78,59,41,35,24,16,58,30,12,30.41,30.34,18,4,26,0.00
2013-6-13,75,58,42,38,28,17,63,37,13,30.39,30.30,30,5,41,0.00
2013-6-14,74,56,38,37,26,16,76,38,12,30.32,30.25,19,5,26,0.00
2013-6-15,70,55,38,35,24,17,58,35,14,30.36,30.28,29,4,42,0.00
2013-6-16,64,48,38,42,33,25,84,61,26,30.44,30.32,43,4,67,0.18
2013-6-17,65,48,36,45,34,21,85,62,23,30.39,30.33,26,5,30,0.08
2013-6-18,74,55,38,38,31,17,85,47,13,30.36,30.21,17,5,22,0.00
2013-6-19,75,57,40,33,24,15,64,33,12,30.25,30.16,23,6,33,0.00
2013-6-20,73,54,39,29,21,16,54,33,12,30.24,30.18,21,7,30,0.00
2013-6-21,74,55,34,28,21,16,62,32,12,30.26,30.22,14,5,19,0.00
2013-6-22,69,48,34,30,21,18,62,40,14,30.25,30.21,13,5,16,0.00
2013-6-24,73,61,46,31,21,15,52,23,12,30.24,30.18,21,5,30,0.00
2013-6-25,72,54,38,43,26,16,64,36,15,30.38,30.20,34,6,58,0.01
2013-6-26,77,59,37,42,31,19,77,39,14,30.48,30.36,19,5,27,0.00
2013-6-27,75,61,45,40,32,20,65,37,14,30.56,30.47,18,5,24,0.00
2013-6-28,75,63,47,46,32,19,67,38,13,30.56,30.48,17,5,27,0.00
2013-6-29,68,58,50,52,41,31,74,55,26,30.51,30.42,23,4,34,0.12
2013-6-30,66,54,45,49,41,35,83,64,36,30.47,30.39,21,4,30,0.17
2013-7-1,67,52,36,46,36,23,94,59,21,30.46,30.42,24,6,30,0.01
2013-7-2,65,52,36,43,36,20,92,59,19,30.46,30.38,32,6,48,0.01
2013-7-3,66,53,40,40,34,23,77,53,20,30.39,30.29,29,8,38,0.00
2013-7-4,70,54,40,50,38,30,79,60,24,30.34,30.28,11,4,16,0.17
2013-7-5,68,59,47,50,44,39,80,60,41,30.31,30.24,22,5,26,0.02
2013-7-6,71,57,47,48,44,39,86,63,35,30.36,30.29,20,5,27,0.01
2013-7-7,73,58,47,50,43,34,76,60,28,30.40,30.34,17,4,21,0.07
2013-7-8,73,58,46,51,41,29,88,58,22,30.47,30.40,18,3,25,0.17
2013-7-9,70,57,44,49,39,28,81,54,22,30.51,30.45,22,4,31,0.00
2013-7-10,75,59,45,49,42,31,82,55,23,30.50,30.39,15,4,21,0.01
2013-7-11,79,63,48,45,39,23,73,47,16,30.43,30.30,17,3,23,0.00
2013-7-12,69,56,50,51,45,40,92,68,36,30.40,30.34,11,2,14,0.30
2013-7-13,71,57,50,53,48,43,84,72,38,30.44,30.37,14,2,17,0.19
2013-7-14,52,49,48,45,44,42,82,80,78,30.43,30.41,5,2,7,0.00
2013-7-22,75,62,41,39,25,16,76,30,12,30.01,29.92,21,5,27,0.27
2013-7-23,75,59,42,38,26,16,64,34,12,30.03,29.93,22,5,30,0.00
2013-7-24,70,57,46,45,41,30,82,57,24,30.04,29.96,14,4,22,0.08
2013-7-25,69,52,40,47,43,34,96,73,35,30.05,29.95,28,4,36,0.22
2013-7-26,66,52,38,48,38,24,99,67,23,30.08,29.99,21,4,24,0.01
2013-7-27,71,56,46,46,41,31,94,61,25,30.03,29.91,19,4,25,0.02
2013-7-28,58,49,44,49,45,41,95,85,64,29.96,29.84,16,3,24,0.26
2013-7-29,56,49,44,46,43,40,91,80,64,29.95,29.86,22,3,30,0.09
2013-7-30,66,51,36,46,38,33,95,66,35,30.11,29.93,17,4,24,0.01
2013-8-2,50,50,50,42,42,42,74,73,73,30.00,29.99,4,3,6,0.00
2013-8-3,69,54,43,46,41,32,87,64,27,30.05,29.96,19,4,27,0.00
2013-8-4,69,54,43,47,41,32,91,67,29,30.10,29.95,25,4,34,0.07
2013-8-5,66,50,39,49,43,37,96,78,43,30.04,29.96,17,3,23,0.26
2013-8-6,65,49,39,50,40,29,96,75,28,30.00,29.92,22,4,28,0.04
2013-8-7,58,47,40,47,41,36,92,81,56,29.99,29.88,11,2,16,0.39
2013-8-8,56,45,36,46,38,32,95,76,47,29.96,29.85,26,3,34,0.02
2013-8-9,63,46,38,46,39,35,91,76,42,30.03,29.87,15,3,22,0.14
2013-8-10,67,49,34,46,33,21,95,60,19,30.02,29.94,26,4,30,0.00
2013-8-11,68,51,37,44,37,23,86,63,20,29.97,29.92,15,3,26,0.00
2013-8-12,67,50,39,44,37,28,86,65,27,30.00,29.90,19,3,28,0.04
2013-8-13,63,46,34,45,38,31,95,75,32,30.02,29.92,31,4,34,0.12
2013-8-14,62,47,33,46,32,23,97,63,24,30.04,29.92,30,4,43,0.01
2013-8-15,68,51,33,38,28,21,86,49,19,30.02,29.90,25,5,33,0.00
2013-8-16,69,55,39,41,30,17,71,44,15,30.02,29.89,20,5,30,0.00
2013-8-17,70,57,44,43,31,18,67,43,15,30.02,29.94,27,4,29,0.00
2013-8-18,71,53,43,48,40,-16,86,64,21,30.06,29.97,16,3,99,0.27
2013-8-19,75,55,38,49,39,24,95,60,22,30.03,29.93,18,4,22,0.01
2013-8-20,75,56,43,46,38,25,78,55,21,29.99,29.91,13,3,17,0.00
2013-8-21,68,54,42,48,42,35,85,66,32,30.01,29.94,20,3,26,0.12
2013-8-22,68,54,44,52,45,40,91,75,43,30.00,29.95,15,2,23,0.47
2013-8-23,70,55,43,50,44,33,92,71,27,29.99,29.90,14,3,19,0.05
2013-8-24,66,52,38,50,42,36,94,70,40,29.97,29.90,14,2,17,0.01
2013-8-25,64,55,44,54,47,40,92,74,52,30.03,29.95,14,3,20,0.19
2013-8-26,66,54,44,53,47,42,94,79,45,30.07,29.98,19,3,22,0.31
2013-8-27,73,56,42,53,46,31,92,70,23,30.04,29.97,15,3,21,0.02
2013-8-28,76,56,43,51,43,28,91,66,18,30.06,29.95,22,3,27,0.15
2013-8-29,69,53,41,54,44,37,97,76,35,30.08,29.98,15,3,21,0.27
2013-8-30,67,54,46,54,48,44,95,82,50,30.08,30.00,14,2,22,0.45
2013-8-31,66,52,43,51,46,40,96,82,45,30.00,29.95,16,2,23,0.09
2013-9-1,68,53,45,54,46,41,94,79,42,29.97,29.92,12,4,18,0.18
2013-9-2,70,56,46,52,46,38,95,73,35,30.00,29.92,14,3,18,0.08
2013-9-3,70,54,42,55,44,38,96,73,33,30.01,29.95,20,3,24,0.06
2013-9-4,69,54,44,53,46,42,96,76,45,30.04,29.96,12,2,16,0.02
2013-9-5,74,57,44,51,43,24,91,64,18,30.02,29.98,11,2,14,0.00
2013-9-6,70,54,41,48,42,37,91,68,32,30.02,29.97,17,3,23,0.00
2013-9-7,73,54,40,48,41,33,92,68,23,29.98,29.93,14,2,18,0.02
2013-9-8,69,53,39,47,41,35,92,67,32,29.93,29.86,14,2,18,0.00
2013-9-9,70,52,40,47,43,37,97,76,36,29.86,29.81,17,3,24,0.14
2013-9-10,56,49,46,49,46,44,96,88,72,30.00,29.83,14,4,18,0.69
2013-9-11,62,50,46,52,46,43,95,85,64,30.01,29.93,13,3,19,0.43
2013-9-12,60,50,45,50,46,43,93,85,62,30.03,29.92,14,3,19,0.69
2013-9-13,54,47,44,46,44,42,94,89,68,29.95,29.89,7,1,10,0.18
2013-9-14,54,49,45,47,43,40,88,81,65,29.92,29.81,13,2,17,0.39
2013-9-15,58,44,38,45,40,36,94,85,58,30.00,29.86,16,4,21,0.38
2013-9-16,59,45,34,45,38,31,94,78,46,29.97,29.90,17,3,24,0.01
2013-9-17,65,47,33,45,35,25,94,67,24,29.92,29.81,22,3,27,0.01
2013-9-18,63,46,39,44,37,28,94,76,28,29.88,29.76,20,4,28,0.33
2013-9-19,57,42,30,43,30,15,96,67,21,29.87,29.77,22,3,30,0.06
2013-9-20,63,41,26,33,24,15,87,59,17,29.95,29.81,14,3,19,0.00
2013-9-21,64,45,31,37,30,23,89,61,24,29.92,29.82,21,4,27,0.00
2013-9-22,55,42,33,45,37,30,93,82,60,29.85,29.70,18,3,24,0.34
2013-9-23,40,33,28,31,26,22,95,77,54,29.97,29.62,34,8,47,0.02
2013-9-24,59,38,24,31,21,12,87,57,19,29.94,29.86,16,3,22,0.01
2013-10-14,37,31,28,30,28,24,94,86,67,30.32,30.16,0,0,0,15.57
2013-10-15,34,29,26,31,25,22,91,85,76,30.38,30.25,0,0,0,5.36
2013-10-16,42,28,20,30,21,13,89,77,54,30.32,30.25,0,0,0,3.96
2013-10-17,48,28,13,24,15,7,81,61,27,30.43,30.13,0,0,0,7.11
2013-10-18,36,26,20,32,22,16,90,83,73,30.36,30.19,0,0,0,14.54
2013-10-19,49,29,13,21,13,7,80,54,24,30.40,30.27,0,0,0,0.31
2013-10-20,48,32,24,26,19,12,81,61,33,30.32,30.23,0,0,0,0.00
2013-10-21,51,31,17,24,18,12,84,61,26,30.42,30.29,0,0,0,0.00
2013-10-22,61,32,18,26,17,11,81,59,21,30.44,30.35,0,0,0,0.14
2013-10-23,66,27,20,29,19,16,85,73,22,30.48,30.32,0,0,0,0.00
2013-10-25,57,37,22,29,19,14,75,52,22,30.40,30.36,0,0,0,0.00
2013-10-26,57,35,21,32,18,14,82,55,21,30.48,30.40,0,0,0,0.00
2013-10-27,56,34,19,28,16,13,78,53,20,30.40,30.24,0,0,0,0.00
2013-10-28,53,36,25,26,16,8,72,47,21,30.24,30.17,0,0,0,0.00
2013-10-29,49,34,26,26,15,6,86,48,21,30.19,30.09,0,0,0,0.00
2013-10-30,32,25,18,27,19,11,90,78,67,30.14,30.10,0,0,0,0.00
2013-10-31,32,25,21,30,22,17,91,87,82,30.20,30.12,0,0,0,0.00
2013-11-1,32,26,16,30,23,10,92,86,76,30.39,30.19,0,0,0,0.00
2013-11-2,37,22,9,31,14,2,90,73,52,30.37,30.17,0,0,0,0.00
2013-11-3,44,30,20,26,18,10,82,59,44,30.17,30.02,0,0,0,0.00
2013-11-4,34,22,8,28,15,0,85,73,65,30.08,30.03,0,0,0,0.00
2013-11-5,26,19,6,21,14,-1,84,79,69,30.20,30.02,0,0,0,0.00
2013-11-6,30,16,3,27,10,-5,88,77,68,30.31,30.19,0,0,0,0.00
2013-11-7,38,23,10,31,16,4,87,75,62,30.33,30.20,0,0,0,0.00
2013-11-8,46,36,23,24,16,10,66,45,25,30.23,30.15,0,0,0,0.00
2013-11-9,50,30,17,22,13,7,68,51,24,30.30,30.22,0,0,0,0.00
2013-11-10,52,31,18,21,13,8,70,51,22,30.33,30.28,0,0,0,0.00
2013-11-11,49,30,18,21,13,9,72,53,24,30.46,30.29,0,0,0,0.00
2013-11-12,53,30,17,20,11,7,74,51,20,30.52,30.42,0,0,0,0.00
2013-11-13,51,31,14,17,9,3,63,44,21,30.48,30.28,0,0,0,0.00
2013-11-14,46,31,17,24,12,-2,80,49,20,30.29,30.14,0,0,0,0.00
2013-11-15,48,31,16,25,11,-7,86,46,21,30.14,30.01,0,0,0,0.00
2013-11-16,43,28,21,23,19,10,84,71,30,30.01,29.93,0,0,2,2.09
2013-11-17,39,26,21,35,21,15,88,82,79,30.30,29.95,0,0,1,0.00
2013-11-18,55,27,11,34,12,4,80,58,20,30.38,30.28,0,0,2,0.01
2013-11-19,52,30,14,25,18,3,80,64,22,30.31,30.17,0,0,0,0.00
2013-11-20,43,32,27,26,21,18,77,64,43,30.20,30.15,0,0,0,0.00
2013-11-21,37,28,15,29,21,8,83,76,68,30.34,30.13,0,0,0,0.00
2013-11-22,33,22,15,23,14,8,76,70,61,30.44,30.30,0,0,0,0.00
2013-11-23,37,26,20,19,13,8,73,57,41,30.40,30.25,0,0,0,0.00
2013-11-24,32,26,18,24,19,11,80,75,67,30.25,30.13,0,0,0,0.00
2013-11-25,25,20,14,19,14,7,79,74,68,30.20,30.19,0,0,0,0.00
2013-11-26,36,22,10,15,8,2,68,55,29,30.40,30.33,0,0,0,0.00
2013-11-27,44,20,7,16,6,-2,72,56,24,30.35,30.30,0,0,0,0.00
2013-11-28,50,26,14,18,8,3,65,49,20,30.33,30.27,0,0,0,0.00
2013-11-29,43,23,12,15,7,2,65,51,25,30.37,30.28,0,0,5,1.45
2013-11-30,43,20,6,15,2,-3,70,51,21,30.38,30.31,0,0,0,0.00
2013-12-1,43,24,7,19,8,-3,67,51,24,30.33,30.26,0,0,0,0.00
2013-12-2,37,30,26,21,18,13,76,62,40,30.27,30.09,0,0,0,0.00
2013-12-3,32,29,26,25,19,12,81,68,43,30.09,29.89,0,0,0,0.00
2013-12-4,27,13,2,19,4,-8,74,68,63,30.04,29.83,0,0,0,0.00
2013-12-5,10,-5,-16,-5,-18,-28,65,51,43,30.03,29.96,0,0,2,0.11
2013-12-6,8,-4,-16,-8,-18,-29,55,47,36,30.14,29.95,0,0,0,0.00
2013-12-7,21,8,-5,2,-6,-18,62,52,29,30.13,29.98,0,0,0,0.00
2013-12-8,10,5,-5,-2,-8,-18,62,53,37,30.12,29.94,0,0,0,0.00
2013-12-9,4,-6,-12,-16,-21,-28,54,45,29,30.25,30.04,0,0,0,0.00
2013-12-10,29,12,-11,8,-4,-26,61,49,32,30.25,30.16,0,0,0,0.00
2013-12-11,31,13,-1,3,-6,-13,61,44,21,30.37,30.22,0,0,0,0.00
2013-12-12,39,16,2,8,-5,-13,52,41,21,30.38,30.20,0,0,0,0.00
2013-12-13,32,16,6,10,0,-8,65,50,25,30.26,30.13,0,0,0,0.00
2013-12-14,23,16,9,6,3,-3,65,56,44,30.36,30.24,0,0,0,0.00
2013-12-16,27,21,17,5,2,0,48,43,33,30.43,30.40,0,0,0,0.00
2013-12-17,44,25,14,10,4,0,53,41,23,30.43,30.33,0,0,0,0.00
2013-12-18,46,29,17,11,3,-1,49,35,20,30.33,30.15,0,0,0,0.00
2013-12-19,43,32,20,18,8,2,61,38,22,30.15,30.01,0,0,0,0.00
2013-12-20,28,19,10,16,9,0,72,64,51,30.04,29.98,0,0,0,0.00
2013-12-21,20,10,-1,9,0,-12,67,62,56,30.07,29.92,0,0,0,0.00
2013-12-22,23,14,7,5,1,-3,64,56,36,30.21,30.06,0,0,0,0.02
2013-12-23,33,22,14,13,7,0,66,53,40,30.35,30.18,0,0,0,0.01
2013-12-24,34,19,-2,21,8,-14,72,62,48,30.35,30.22,0,0,0,0.12
2013-12-25,32,6,-5,12,-8,-17,69,53,23,30.42,30.29,0,0,0,0.00
2013-12-26,41,13,0,12,-1,-12,62,53,25,30.41,30.30,0,0,0,0.00
2013-12-27,42,18,6,20,5,-3,73,58,34,30.39,30.32,0,0,0,0.00
2013-12-28,36,21,10,19,9,0,73,61,43,30.32,30.14,0,0,0,0.00
2013-12-29,30,15,5,12,3,-8,70,58,40,30.25,30.17,0,0,0,0.00
2013-12-30,35,20,10,7,2,-4,56,46,25,30.36,30.21,0,0,0,0.00
2013-12-31,37,27,15,17,11,0,66,52,41,30.31,30.21,0,0,0,0.00
2014-1-1,28,19,5,16,10,-5,75,68,55,30.31,30.16,0,0,0,0.00
2014-1-2,43,16,1,21,2,-10,65,55,27,30.34,30.26,0,0,0,0.00